Time;durP1;ratioP1;P1;durP2;ratioP2;P2;SDS_P1;SDS_P2;PMS_P1;PMS_P2;Temp;Humidity;BMP_temperature;BMP_pressure;BME280_temperature;BME280_humidity;BME280_pressure;Samples;Min_cycle;Max_cycle;Signal;HPM_P1;HPM_P2
2023/05/17 00:01:05;;;;;;;18.50;7.68;;;;;;;;;;4992323;28;20062;-53
2023/05/17 00:03:31;;;;;;;17.98;8.15;;;;;;;;;;5022542;23;20107;-48
2023/05/17 00:05:57;;;;;;;20.20;8.20;;;;;;;;;;5000226;28;20049;-50
2023/05/17 00:08:23;;;;;;;18.10;8.70;;;;;;;;;;4995327;28;20031;-47
2023/05/17 00:10:49;;;;;;;19.75;9.57;;;;;;;;;;5004257;28;20029;-47
2023/05/17 00:13:15;;;;;;;24.15;9.77;;;;;;;;;;5000152;28;20030;-50
2023/05/17 00:15:41;;;;;;;22.52;8.77;;;;;;;;;;4995123;28;20026;-47
2023/05/17 00:18:07;;;;;;;19.65;9.27;;;;;;;;;;4995458;28;20101;-50
2023/05/17 00:20:34;;;;;;;17.83;8.10;;;;;;;;;;4995370;28;20525;-50
2023/05/17 00:23:00;;;;;;;21.55;9.00;;;;;;;;;;4995193;28;20382;-47
2023/05/17 00:25:26;;;;;;;20.48;8.35;;;;;;;;;;4994950;28;20387;-48
2023/05/17 00:27:52;;;;;;;18.13;8.60;;;;;;;;;;4995087;28;20106;-49
2023/05/17 00:30:18;;;;;;;19.30;8.30;;;;;;;;;;4995195;28;20382;-53
2023/05/17 00:32:45;;;;;;;21.05;8.30;;;;;;;;;;4995093;28;20034;-49
2023/05/17 00:35:11;;;;;;;20.90;9.35;;;;;;;;;;4994823;28;20032;-50
2023/05/17 00:37:37;;;;;;;21.35;9.38;;;;;;;;;;4995063;28;20101;-51
2023/05/17 00:40:04;;;;;;;22.50;8.85;;;;;;;;;;4994902;28;20030;-53
2023/05/17 00:42:30;;;;;;;18.83;9.02;;;;;;;;;;4994827;28;20058;-50
2023/05/17 00:44:56;;;;;;;20.23;9.32;;;;;;;;;;4994716;28;20097;-51
2023/05/17 00:47:22;;;;;;;21.95;8.88;;;;;;;;;;4994226;28;20029;-47
2023/05/17 00:49:48;;;;;;;19.85;9.35;;;;;;;;;;4994911;28;20118;-48
2023/05/17 00:52:15;;;;;;;24.80;8.93;;;;;;;;;;4993573;28;20101;-53
2023/05/17 00:54:41;;;;;;;23.27;9.07;;;;;;;;;;4994742;28;20115;-49
2023/05/17 00:57:07;;;;;;;24.45;9.55;;;;;;;;;;4994929;28;20027;-48
2023/05/17 00:59:33;;;;;;;18.58;9.02;;;;;;;;;;4994991;28;20054;-48
2023/05/17 01:02:00;;;;;;;28.38;10.35;;;;;;;;;;4994345;28;20035;-53
2023/05/17 01:04:26;;;;;;;22.80;9.38;;;;;;;;;;4994452;28;20439;-51
2023/05/17 01:06:52;;;;;;;21.65;9.52;;;;;;;;;;4994621;28;20022;-51
2023/05/17 01:09:18;;;;;;;20.73;9.27;;;;;;;;;;4994696;28;20022;-49
2023/05/17 01:12:13;;;;;;;20.15;8.88;;;;;;;;;;4994404;28;20023;-48
2023/05/17 01:14:39;;;;;;;21.58;9.27;;;;;;;;;;4908083;28;20068;-53
2023/05/17 01:17:37;;;;;;;19.40;9.25;;;;;;;;;;4994569;28;20513;-53
2023/05/17 01:20:05;;;;;;;;;;;;;;;;;;4941376;28;20045;-53
2023/05/17 01:22:31;;;;;;;20.80;9.18;;;;;;;;;;4994252;28;19906;-47
2023/05/17 01:25:06;;;;;;;19.75;9.20;;;;;;;;;;4993877;28;20031;-48
2023/05/17 01:27:32;;;;;;;26.00;11.10;;;;;;;;;;4992971;28;20026;-49
2023/05/17 01:29:58;;;;;;;22.02;9.80;;;;;;;;;;4994067;28;20442;-50
2023/05/17 01:32:24;;;;;;;23.63;10.65;;;;;;;;;;4992694;28;20038;-50
2023/05/17 01:34:50;;;;;;;19.85;9.50;;;;;;;;;;4993818;28;20493;-49
2023/05/17 01:37:16;;;;;;;26.42;11.18;;;;;;;;;;4992677;28;20038;-48
2023/05/17 01:39:42;;;;;;;27.83;11.23;;;;;;;;;;4993819;28;20105;-49
2023/05/17 01:42:21;;;;;;;21.40;10.32;;;;;;;;;;4993844;28;20046;-50
2023/05/17 01:44:47;;;;;;;;;;;;;;;;;;4993902;28;20033;-52
2023/05/17 01:47:15;;;;;;;29.42;10.77;;;;;;;;;;4993782;28;19906;-50
2023/05/17 01:49:46;;;;;;;27.35;10.07;;;;;;;;;;4991434;28;20026;-52
2023/05/17 01:52:32;;;;;;;25.50;9.98;;;;;;;;;;4993884;28;20027;-47
2023/05/17 01:55:04;;;;;;;23.40;9.68;;;;;;;;;;4929637;28;20030;-48
2023/05/17 01:57:33;;;;;;;22.73;10.15;;;;;;;;;;4999496;28;20022;-54
2023/05/17 02:00:00;;;;;;;26.15;10.52;;;;;;;;;;4993736;28;20041;-53
2023/05/17 02:02:27;;;;;;;24.15;9.68;;;;;;;;;;4993477;28;20133;-47
2023/05/17 02:04:53;;;;;;;24.38;10.60;;;;;;;;;;4993539;28;20023;-51
2023/05/17 02:07:20;;;;;;;21.42;10.27;;;;;;;;;;4993561;28;20022;-47
2023/05/17 02:09:46;;;;;;;26.25;9.25;;;;;;;;;;4993493;28;20034;-48
2023/05/17 02:12:12;;;;;;;20.65;10.00;;;;;;;;;;4993522;28;20050;-47
2023/05/17 02:14:38;;;;;;;24.55;9.90;;;;;;;;;;4992987;28;20018;-47
2023/05/17 02:17:04;;;;;;;33.75;10.20;;;;;;;;;;4993482;28;20066;-49
2023/05/17 02:19:30;;;;;;;22.70;9.85;;;;;;;;;;4993258;28;20097;-47
2023/05/17 02:21:56;;;;;;;25.08;9.57;;;;;;;;;;4993126;28;20026;-46
2023/05/17 02:24:22;;;;;;;24.15;10.23;;;;;;;;;;4993013;28;20030;-47
2023/05/17 02:26:48;;;;;;;24.00;10.32;;;;;;;;;;4992073;28;20068;-47
2023/05/17 02:29:14;;;;;;;27.30;10.80;;;;;;;;;;4993078;28;20023;-50
2023/05/17 02:31:40;;;;;;;29.65;12.07;;;;;;;;;;4993285;28;20022;-48
2023/05/17 02:34:06;;;;;;;23.23;9.50;;;;;;;;;;4993307;28;20105;-50
2023/05/17 02:36:32;;;;;;;22.35;10.25;;;;;;;;;;4993282;28;20030;-51
2023/05/17 02:38:58;;;;;;;21.58;10.32;;;;;;;;;;4993510;28;20034;-51
2023/05/17 02:41:24;;;;;;;23.27;9.50;;;;;;;;;;4992928;28;20038;-52
2023/05/17 02:43:51;;;;;;;23.85;10.30;;;;;;;;;;4992663;28;20019;-55
2023/05/17 02:46:17;;;;;;;22.05;9.98;;;;;;;;;;4992863;28;20417;-52
2023/05/17 02:48:43;;;;;;;27.75;11.82;;;;;;;;;;4992841;28;20101;-51
2023/05/17 02:51:09;;;;;;;23.60;9.93;;;;;;;;;;4992787;28;20018;-48
2023/05/17 02:53:35;;;;;;;22.48;10.45;;;;;;;;;;4993147;28;20022;-49
2023/05/17 02:56:02;;;;;;;25.23;10.73;;;;;;;;;;4992716;28;20100;-48
2023/05/17 02:58:28;;;;;;;24.63;10.65;;;;;;;;;;4992837;28;20033;-47
2023/05/17 03:00:54;;;;;;;22.60;10.43;;;;;;;;;;4992745;28;20038;-47
2023/05/17 03:03:20;;;;;;;24.95;10.68;;;;;;;;;;4991245;28;20067;-48
2023/05/17 03:05:46;;;;;;;27.30;10.07;;;;;;;;;;4992143;28;20081;-49
2023/05/17 03:08:12;;;;;;;23.17;9.55;;;;;;;;;;4991192;28;20027;-48
2023/05/17 03:10:38;;;;;;;21.15;9.45;;;;;;;;;;4992137;28;20089;-48
2023/05/17 03:13:04;;;;;;;22.80;9.35;;;;;;;;;;4991211;28;20371;-51
2023/05/17 03:15:30;;;;;;;28.52;10.38;;;;;;;;;;4992321;28;20023;-50
2023/05/17 03:17:56;;;;;;;26.13;10.60;;;;;;;;;;4991171;28;20058;-52
2023/05/17 03:20:22;;;;;;;22.35;9.45;;;;;;;;;;4992251;28;20053;-49
2023/05/17 03:22:48;;;;;;;23.60;10.02;;;;;;;;;;4994985;28;20448;-50
2023/05/17 03:25:14;;;;;;;25.38;10.48;;;;;;;;;;5011708;28;20135;-53
2023/05/17 03:27:40;;;;;;;27.45;9.75;;;;;;;;;;5011762;28;20026;-50
2023/05/17 03:30:07;;;;;;;22.58;9.95;;;;;;;;;;5010198;28;20030;-54
2023/05/17 03:32:33;;;;;;;28.73;10.38;;;;;;;;;;5010800;28;20022;-48
2023/05/17 03:34:59;;;;;;;26.85;10.50;;;;;;;;;;5011640;28;20113;-48
2023/05/17 03:37:25;;;;;;;24.23;10.25;;;;;;;;;;5011641;28;20025;-52
2023/05/17 03:39:51;;;;;;;24.02;10.77;;;;;;;;;;5011679;28;20034;-49
2023/05/17 03:42:17;;;;;;;34.47;13.68;;;;;;;;;;5009922;28;20033;-50
2023/05/17 03:44:43;;;;;;;27.30;10.05;;;;;;;;;;5011381;28;20033;-52
2023/05/17 03:47:09;;;;;;;25.45;10.88;;;;;;;;;;5011570;28;20026;-53
2023/05/17 03:49:35;;;;;;;29.67;12.93;;;;;;;;;;5011825;28;20026;-52
2023/05/17 03:52:02;;;;;;;23.23;9.48;;;;;;;;;;5011361;28;20040;-50
2023/05/17 03:54:28;;;;;;;28.77;11.63;;;;;;;;;;5011267;28;20022;-53
2023/05/17 03:56:54;;;;;;;22.63;10.43;;;;;;;;;;5011447;28;20053;-51
2023/05/17 03:59:20;;;;;;;23.15;10.40;;;;;;;;;;5010867;28;20419;-52
2023/05/17 04:01:46;;;;;;;24.65;10.88;;;;;;;;;;5012004;28;20053;-48
2023/05/17 04:04:12;;;;;;;24.20;10.13;;;;;;;;;;5011304;28;20132;-50
2023/05/17 04:06:39;;;;;;;23.10;10.70;;;;;;;;;;5011607;28;20022;-54
2023/05/17 04:09:06;;;;;;;30.37;10.73;;;;;;;;;;5010383;28;20037;-49
2023/05/17 04:11:33;;;;;;;24.00;11.60;;;;;;;;;;5011476;28;20026;-49
2023/05/17 04:13:59;;;;;;;24.17;10.63;;;;;;;;;;5011163;28;20026;-52
2023/05/17 04:16:25;;;;;;;28.38;10.90;;;;;;;;;;5011446;28;20030;-52
2023/05/17 04:18:51;;;;;;;23.38;10.68;;;;;;;;;;5011378;28;20119;-52
2023/05/17 04:21:17;;;;;;;26.45;11.23;;;;;;;;;;5011266;28;20490;-49
2023/05/17 04:23:44;;;;;;;25.77;11.95;;;;;;;;;;5014037;28;20359;-51
2023/05/17 04:26:10;;;;;;;21.45;10.95;;;;;;;;;;5013364;28;20470;-48
2023/05/17 04:28:36;;;;;;;23.00;10.38;;;;;;;;;;5014750;28;20101;-48
2023/05/17 04:31:02;;;;;;;30.02;11.82;;;;;;;;;;5014819;28;20466;-47
2023/05/17 04:33:28;;;;;;;35.25;13.05;;;;;;;;;;5013296;28;20125;-48
2023/05/17 04:35:54;;;;;;;30.48;11.80;;;;;;;;;;5014488;28;20097;-51
2023/05/17 04:38:20;;;;;;;24.90;12.50;;;;;;;;;;5014732;28;20037;-50
2023/05/17 04:40:46;;;;;;;26.85;12.38;;;;;;;;;;5014397;28;20053;-50
2023/05/17 04:43:12;;;;;;;26.35;11.75;;;;;;;;;;5012920;28;20026;-54
2023/05/17 04:45:38;;;;;;;25.08;11.15;;;;;;;;;;5014199;28;20037;-48
2023/05/17 04:48:04;;;;;;;25.80;12.23;;;;;;;;;;5014291;28;20113;-55
2023/05/17 04:50:30;;;;;;;25.35;11.98;;;;;;;;;;5014406;28;20045;-51
2023/05/17 04:52:56;;;;;;;23.83;12.25;;;;;;;;;;5014144;28;20038;-51
2023/05/17 04:55:22;;;;;;;23.90;11.07;;;;;;;;;;5013731;28;20343;-54
2023/05/17 04:57:48;;;;;;;23.88;12.25;;;;;;;;;;5014071;28;20068;-52
2023/05/17 05:00:15;;;;;;;23.02;11.07;;;;;;;;;;5012928;28;20030;-54
2023/05/17 05:02:41;;;;;;;27.52;11.80;;;;;;;;;;5014192;28;20389;-49
2023/05/17 05:05:10;;;;;;;28.88;11.70;;;;;;;;;;5013925;28;20022;-49
2023/05/17 05:07:38;;;;;;;21.92;11.90;;;;;;;;;;5013737;28;20025;-52
2023/05/17 05:10:05;;;;;;;20.75;11.30;;;;;;;;;;5006717;28;20078;-51
2023/05/17 05:12:31;;;;;;;28.73;12.05;;;;;;;;;;4992732;28;20030;-51
2023/05/17 05:14:57;;;;;;;28.98;13.60;;;;;;;;;;4998730;28;20019;-55
2023/05/17 05:17:22;;;;;;;24.75;10.85;;;;;;;;;;4993851;28;20044;-54
2023/05/17 05:19:49;;;;;;;23.48;10.80;;;;;;;;;;4995255;28;20038;-53
2023/05/17 05:22:15;;;;;;;22.63;10.95;;;;;;;;;;4997228;28;20430;-51
2023/05/17 05:24:41;;;;;;;22.35;9.88;;;;;;;;;;4992287;28;20029;-50
2023/05/17 05:27:07;;;;;;;23.77;11.68;;;;;;;;;;4995120;28;20038;-50
2023/05/17 05:29:33;;;;;;;21.42;10.88;;;;;;;;;;4995974;28;20027;-50
2023/05/17 05:31:59;;;;;;;27.20;10.80;;;;;;;;;;4992310;28;20030;-51
2023/05/17 05:34:27;;;;;;;27.15;10.38;;;;;;;;;;4993156;28;20122;-49
2023/05/17 05:36:53;;;;;;;23.88;9.90;;;;;;;;;;4994018;28;20109;-52
2023/05/17 05:39:19;;;;;;;33.97;11.40;;;;;;;;;;4993304;28;20081;-52
2023/05/17 05:41:46;;;;;;;21.20;9.95;;;;;;;;;;4993161;28;20057;-48
2023/05/17 05:44:12;;;;;;;21.95;10.18;;;;;;;;;;4988230;28;20043;-54
2023/05/17 05:46:38;;;;;;;24.85;9.63;;;;;;;;;;4993102;28;20088;-53
2023/05/17 05:49:04;;;;;;;27.08;9.45;;;;;;;;;;4993357;28;20026;-55
2023/05/17 05:51:30;;;;;;;22.85;9.43;;;;;;;;;;4991708;28;20034;-48
2023/05/17 05:53:57;;;;;;;22.05;9.60;;;;;;;;;;4992939;28;20417;-51
2023/05/17 05:56:24;;;;;;;21.73;8.27;;;;;;;;;;4993111;28;20506;-48
2023/05/17 05:58:50;;;;;;;22.90;8.98;;;;;;;;;;4993071;28;20093;-52
2023/05/17 06:01:16;;;;;;;21.35;9.18;;;;;;;;;;4993006;28;20636;-50
2023/05/17 06:03:42;;;;;;;25.88;9.10;;;;;;;;;;5017512;22;20207;-58
2023/05/17 06:06:09;;;;;;;20.67;8.63;;;;;;;;;;4991334;28;20014;-59
2023/05/17 06:08:35;;;;;;;21.92;8.98;;;;;;;;;;4992307;28;20021;-59
2023/05/17 06:11:01;;;;;;;22.92;8.82;;;;;;;;;;4992179;28;20059;-60
2023/05/17 06:13:27;;;;;;;21.15;8.60;;;;;;;;;;4991829;28;20030;-55
2023/05/17 06:15:53;;;;;;;26.00;9.65;;;;;;;;;;4992317;28;20038;-60
2023/05/17 06:18:19;;;;;;;24.63;9.25;;;;;;;;;;4987521;28;20382;-59
2023/05/17 06:20:45;;;;;;;25.35;8.88;;;;;;;;;;4979547;28;20076;-60
2023/05/17 06:23:11;;;;;;;21.77;8.63;;;;;;;;;;4991673;28;20077;-59
2023/05/17 06:25:38;;;;;;;22.55;7.95;;;;;;;;;;4991521;28;20026;-61
2023/05/17 06:28:04;;;;;;;29.92;8.95;;;;;;;;;;4992271;28;20146;-61
2023/05/17 06:30:30;;;;;;;26.88;8.27;;;;;;;;;;4991707;28;20030;-58
2023/05/17 06:32:56;;;;;;;22.30;9.43;;;;;;;;;;4992205;28;20037;-57
2023/05/17 06:35:22;;;;;;;24.42;10.68;;;;;;;;;;4991650;28;20116;-60
2023/05/17 06:37:48;;;;;;;20.30;8.25;;;;;;;;;;4992178;28;20038;-60
2023/05/17 06:40:14;;;;;;;25.23;9.32;;;;;;;;;;4992150;28;20086;-60
2023/05/17 06:42:40;;;;;;;20.00;8.93;;;;;;;;;;4992725;28;20034;-59
2023/05/17 06:45:06;;;;;;;20.00;8.05;;;;;;;;;;4991787;28;20082;-60
2023/05/17 06:47:32;;;;;;;21.75;8.38;;;;;;;;;;4992505;28;20031;-58
2023/05/17 06:49:58;;;;;;;20.88;8.00;;;;;;;;;;4996433;28;20029;-62
2023/05/17 06:52:24;;;;;;;28.25;8.85;;;;;;;;;;4999143;28;20523;-62
2023/05/17 06:54:51;;;;;;;26.88;8.68;;;;;;;;;;4999778;28;20019;-60
2023/05/17 06:57:17;;;;;;;20.73;9.68;;;;;;;;;;4999586;28;20101;-62
2023/05/17 06:59:43;;;;;;;21.75;8.30;;;;;;;;;;4999463;28;20050;-62
2023/05/17 07:02:09;;;;;;;19.17;8.70;;;;;;;;;;4999600;28;20076;-62
2023/05/17 07:04:35;;;;;;;19.83;9.30;;;;;;;;;;4998735;28;20031;-63
2023/05/17 07:07:01;;;;;;;20.75;8.57;;;;;;;;;;4995086;28;20097;-54
2023/05/17 07:09:27;;;;;;;22.67;9.43;;;;;;;;;;4990777;28;20037;-54
2023/05/17 07:11:53;;;;;;;22.55;10.02;;;;;;;;;;4990625;28;20050;-52
2023/05/17 07:14:19;;;;;;;27.13;9.48;;;;;;;;;;4990019;28;20033;-51
2023/05/17 07:16:47;;;;;;;17.80;9.65;;;;;;;;;;4990545;28;20084;-50
2023/05/17 07:19:13;;;;;;;22.23;9.75;;;;;;;;;;4990524;28;20510;-48
2023/05/17 07:21:40;;;;;;;20.85;9.38;;;;;;;;;;4990446;28;20022;-48
2023/05/17 07:24:06;;;;;;;19.52;8.45;;;;;;;;;;4990466;28;20474;-51
2023/05/17 07:26:32;;;;;;;20.25;10.30;;;;;;;;;;4990629;28;20042;-51
2023/05/17 07:28:58;;;;;;;17.55;8.48;;;;;;;;;;4990442;28;20019;-53
2023/05/17 07:31:25;;;;;;;19.45;8.40;;;;;;;;;;4990602;28;20026;-49
2023/05/17 07:33:51;;;;;;;20.95;9.30;;;;;;;;;;4990383;28;20038;-51
2023/05/17 07:36:16;;;;;;;21.63;9.50;;;;;;;;;;4989193;28;20023;-52
2023/05/17 07:38:42;;;;;;;19.58;8.32;;;;;;;;;;4990308;28;20030;-50
2023/05/17 07:41:09;;;;;;;20.52;10.18;;;;;;;;;;4990588;28;20030;-51
2023/05/17 07:43:38;;;;;;;23.00;9.70;;;;;;;;;;4990720;28;20101;-49
2023/05/17 07:46:04;;;;;;;18.23;9.65;;;;;;;;;;4991226;28;20070;-47
2023/05/17 07:48:30;;;;;;;24.13;10.48;;;;;;;;;;4990338;28;20102;-50
2023/05/17 07:50:56;;;;;;;22.23;10.35;;;;;;;;;;4990070;28;20061;-46
2023/05/17 07:53:22;;;;;;;22.17;10.75;;;;;;;;;;4991207;28;20482;-50
2023/05/17 07:55:48;;;;;;;19.55;10.20;;;;;;;;;;4993002;28;20075;-48
2023/05/17 07:58:14;;;;;;;17.05;10.00;;;;;;;;;;4996224;28;20019;-48
2023/05/17 08:00:41;;;;;;;21.35;10.90;;;;;;;;;;4993564;28;20053;-49
2023/05/17 08:03:07;;;;;;;18.70;10.30;;;;;;;;;;4994700;28;20148;-50
2023/05/17 08:05:33;;;;;;;22.50;10.85;;;;;;;;;;4993570;28;20018;-49
2023/05/17 08:07:59;;;;;;;20.67;10.85;;;;;;;;;;4993736;28;20387;-50
2023/05/17 08:10:28;;;;;;;18.73;10.68;;;;;;;;;;4993803;28;20383;-47
2023/05/17 08:12:54;;;;;;;19.50;10.18;;;;;;;;;;4983980;28;20041;-51
2023/05/17 08:15:21;;;;;;;17.40;10.13;;;;;;;;;;4992132;28;20058;-47
2023/05/17 08:17:47;;;;;;;16.98;9.82;;;;;;;;;;4980976;28;20403;-49
2023/05/17 08:20:13;;;;;;;23.63;11.70;;;;;;;;;;4974047;28;20031;-49
2023/05/17 08:22:39;;;;;;;21.17;9.50;;;;;;;;;;4991091;28;20072;-58
2023/05/17 08:25:05;;;;;;;19.40;10.45;;;;;;;;;;4992733;28;20101;-58
2023/05/17 08:27:31;;;;;;;18.25;10.43;;;;;;;;;;4993379;28;20024;-58
2023/05/17 08:29:58;;;;;;;19.65;10.77;;;;;;;;;;4992928;28;20132;-59
2023/05/17 08:32:24;;;;;;;24.23;11.05;;;;;;;;;;4992972;28;20030;-56
2023/05/17 08:34:51;;;;;;;19.98;10.98;;;;;;;;;;4993335;28;20060;-58
2023/05/17 08:37:20;;;;;;;20.10;10.25;;;;;;;;;;4987806;28;20579;-58
2023/05/17 08:39:48;;;;;;;21.30;10.30;;;;;;;;;;5001434;28;20031;-57
2023/05/17 08:42:14;;;;;;;21.07;10.83;;;;;;;;;;4988595;28;20022;-58
2023/05/17 08:44:40;;;;;;;21.35;11.32;;;;;;;;;;4990199;28;20085;-58
2023/05/17 08:47:10;;;;;;;19.00;10.02;;;;;;;;;;4998548;28;20019;-58
2023/05/17 08:49:36;;;;;;;20.35;10.35;;;;;;;;;;4992388;28;20149;-60
2023/05/17 08:52:08;;;;;;;21.48;11.48;;;;;;;;;;4993007;28;20427;-58
2023/05/17 08:54:34;;;;;;;19.52;10.68;;;;;;;;;;4992514;28;20510;-59
2023/05/17 08:57:03;;;;;;;18.15;11.02;;;;;;;;;;4992881;28;20029;-56
2023/05/17 08:59:32;;;;;;;19.98;11.23;;;;;;;;;;4991737;28;20030;-57
2023/05/17 09:01:58;;;;;;;22.85;11.52;;;;;;;;;;4993212;28;20551;-57
2023/05/17 09:04:25;;;;;;;21.92;11.57;;;;;;;;;;4992502;28;20153;-60
2023/05/17 09:06:54;;;;;;;18.60;10.68;;;;;;;;;;4744288;28;10000886;-60
2023/05/17 09:09:20;;;;;;;18.13;10.48;;;;;;;;;;4987485;28;20274;-58
2023/05/17 09:11:46;;;;;;;21.23;11.68;;;;;;;;;;4989335;28;20095;-60
2023/05/17 09:14:16;;;;;;;20.80;11.38;;;;;;;;;;4988943;28;20031;-59
2023/05/17 09:16:42;;;;;;;18.70;11.05;;;;;;;;;;4989074;28;20038;-58
2023/05/17 09:19:13;;;;;;;20.55;12.45;;;;;;;;;;4986808;28;20042;-59
2023/05/17 09:21:39;;;;;;;21.73;12.45;;;;;;;;;;4986939;28;20077;-59
2023/05/17 09:24:05;;;;;;;20.38;11.00;;;;;;;;;;4988337;28;20034;-59
2023/05/17 09:26:42;;;;;;;22.05;10.98;;;;;;;;;;4988976;28;20033;-60
2023/05/17 09:29:09;;;;;;;22.10;11.48;;;;;;;;;;4988675;28;20026;-60
2023/05/17 09:31:35;;;;;;;22.83;10.68;;;;;;;;;;4988283;28;20791;-58
2023/05/17 09:34:01;;;;;;;19.48;10.77;;;;;;;;;;4986754;28;20088;-60
2023/05/17 09:36:27;;;;;;;18.35;10.77;;;;;;;;;;4988909;28;20039;-59
2023/05/17 09:38:53;;;;;;;19.95;11.38;;;;;;;;;;4988739;28;20049;-60
2023/05/17 09:41:20;;;;;;;17.25;11.20;;;;;;;;;;4988484;28;20034;-58
2023/05/17 09:43:47;;;;;;;18.42;11.07;;;;;;;;;;4991306;28;20397;-59
2023/05/17 09:46:14;;;;;;;19.02;11.65;;;;;;;;;;4989272;28;20022;-58
2023/05/17 09:48:42;;;;;;;18.48;12.02;;;;;;;;;;4989979;28;20050;-58
2023/05/17 09:51:08;;;;;;;21.13;11.50;;;;;;;;;;4990286;28;20490;-57
2023/05/17 09:53:39;;;;;;;20.08;11.15;;;;;;;;;;4991501;28;20034;-60
2023/05/17 09:56:06;;;;;;;19.63;11.02;;;;;;;;;;4991025;28;20046;-60
2023/05/17 09:58:35;;;;;;;21.10;11.07;;;;;;;;;;4991058;28;20038;-58
2023/05/17 10:01:02;;;;;;;19.05;11.30;;;;;;;;;;4991478;28;20165;-60
2023/05/17 10:03:38;;;;;;;18.65;10.80;;;;;;;;;;4991115;28;20030;-61
2023/05/17 10:06:08;;;;;;;21.13;11.48;;;;;;;;;;4990637;28;20041;-59
2023/05/17 10:08:35;;;;;;;24.08;11.38;;;;;;;;;;4990887;28;20034;-60
2023/05/17 10:11:08;;;;;;;19.23;11.05;;;;;;;;;;4991014;28;20022;-61
2023/05/17 10:13:36;;;;;;;22.23;11.63;;;;;;;;;;4990392;28;20026;-60
2023/05/17 10:16:03;;;;;;;19.77;11.40;;;;;;;;;;4990514;28;20022;-59
2023/05/17 10:18:30;;;;;;;21.50;11.40;;;;;;;;;;4990540;28;20390;-60
2023/05/17 10:20:56;;;;;;;20.35;10.85;;;;;;;;;;4989908;28;20498;-58
2023/05/17 10:23:23;;;;;;;20.05;11.05;;;;;;;;;;4983838;28;20716;-58
2023/05/17 10:25:49;;;;;;;19.33;10.23;;;;;;;;;;4979139;28;20042;-59
2023/05/17 10:28:17;;;;;;;16.35;10.73;;;;;;;;;;4986308;28;20081;-60
2023/05/17 10:30:43;;;;;;;16.80;11.00;;;;;;;;;;4988912;28;20053;-59
2023/05/17 10:33:11;;;;;;;20.27;10.77;;;;;;;;;;4989924;28;20467;-59
2023/05/17 10:35:37;;;;;;;19.00;10.40;;;;;;;;;;4985932;28;20105;-58
2023/05/17 10:38:03;;;;;;;20.42;11.10;;;;;;;;;;4991014;28;20438;-58
2023/05/17 10:40:30;;;;;;;17.42;10.85;;;;;;;;;;4990968;28;20550;-60
2023/05/17 10:42:56;;;;;;;18.60;10.43;;;;;;;;;;4990839;28;20045;-61
2023/05/17 10:45:26;;;;;;;19.88;10.98;;;;;;;;;;4990519;28;20029;-58
2023/05/17 10:47:53;;;;;;;18.33;11.35;;;;;;;;;;4991135;28;20022;-60
2023/05/17 10:50:23;;;;;;;18.92;11.73;;;;;;;;;;4990896;28;20087;-61
2023/05/17 10:52:49;;;;;;;17.13;11.30;;;;;;;;;;4990265;28;20474;-57
2023/05/17 10:55:20;;;;;;;19.15;11.63;;;;;;;;;;4989985;28;20081;-58
2023/05/17 10:57:57;;;;;;;17.73;12.20;;;;;;;;;;4990519;28;20466;-59
2023/05/17 11:00:28;;;;;;;17.30;11.00;;;;;;;;;;4989394;28;20054;-58
2023/05/17 11:03:10;;;;;;;20.17;10.85;;;;;;;;;;4990474;28;20045;-58
2023/05/17 11:05:36;;;;;;;18.90;10.43;;;;;;;;;;4990321;28;20030;-60
2023/05/17 11:08:15;;;;;;;20.02;11.20;;;;;;;;;;4990448;28;20025;-59
2023/05/17 11:11:00;;;;;;;20.25;11.27;;;;;;;;;;4990300;28;20113;-59
2023/05/17 11:13:26;;;;;;;20.33;11.45;;;;;;;;;;4989064;28;20038;-60
2023/05/17 11:16:05;;;;;;;20.83;11.93;;;;;;;;;;4990184;28;20376;-59
2023/05/17 11:18:49;;;;;;;19.15;11.98;;;;;;;;;;4988687;28;20057;-60
2023/05/17 11:21:15;;;;;;;17.45;10.90;;;;;;;;;;4990294;28;20038;-60
2023/05/17 11:23:45;;;;;;;16.42;10.70;;;;;;;;;;4990169;28;20408;-56
2023/05/17 11:26:16;;;;;;;17.63;11.05;;;;;;;;;;4989552;28;20066;-59
2023/05/17 11:28:42;;;;;;;18.42;11.77;;;;;;;;;;4990159;28;20031;-60
2023/05/17 11:31:08;;;;;;;19.23;12.50;;;;;;;;;;4989238;28;20042;-58
2023/05/17 11:33:39;;;;;;;19.13;12.27;;;;;;;;;;4994061;28;20113;-60
2023/05/17 11:36:06;;;;;;;17.67;11.38;;;;;;;;;;4994062;28;20526;-60
2023/05/17 11:38:33;;;;;;;26.58;12.93;;;;;;;;;;4992847;28;20494;-58
2023/05/17 11:41:15;;;;;;;21.83;12.63;;;;;;;;;;4993934;28;20030;-59
2023/05/17 11:43:44;;;;;;;22.70;12.77;;;;;;;;;;4994153;28;20037;-58
2023/05/17 11:46:18;;;;;;;22.85;12.40;;;;;;;;;;4993790;28;20042;-58
2023/05/17 11:48:44;;;;;;;20.00;12.40;;;;;;;;;;4994219;28;20031;-59
2023/05/17 11:51:13;;;;;;;24.83;11.85;;;;;;;;;;4998194;28;20390;-57
2023/05/17 11:53:40;;;;;;;20.35;12.32;;;;;;;;;;4996081;28;20509;-61
2023/05/17 11:56:07;;;;;;;19.02;12.23;;;;;;;;;;4990293;28;20030;-59
2023/05/17 11:58:34;;;;;;;19.77;12.77;;;;;;;;;;5008499;28;20018;-61
2023/05/17 12:01:02;;;;;;;20.90;13.85;;;;;;;;;;4996823;28;20117;-55
2023/05/17 12:03:28;;;;;;;22.05;12.82;;;;;;;;;;5032333;22;20133;-57
2023/05/17 12:06:14;;;;;;;20.73;12.55;;;;;;;;;;5007050;28;20034;-55
2023/05/17 12:08:43;;;;;;;23.60;13.07;;;;;;;;;;5023792;28;20026;-55
2023/05/17 12:11:13;;;;;;;19.77;12.88;;;;;;;;;;5007325;28;20378;-57
2023/05/17 12:13:42;;;;;;;20.17;12.88;;;;;;;;;;5014574;28;20506;-56
2023/05/17 12:16:11;;;;;;;23.15;13.43;;;;;;;;;;4995167;28;20033;-54
2023/05/17 12:18:41;;;;;;;19.52;13.10;;;;;;;;;;4974893;28;20021;-59
2023/05/17 12:21:12;;;;;;;22.05;13.43;;;;;;;;;;5011261;28;20041;-55
2023/05/17 12:23:40;;;;;;;20.85;12.80;;;;;;;;;;4988840;28;20029;-58
2023/05/17 12:26:09;;;;;;;22.07;13.77;;;;;;;;;;5014366;28;20033;-50
2023/05/17 12:28:39;;;;;;;22.02;13.63;;;;;;;;;;5014571;28;20022;-56
2023/05/17 12:31:07;;;;;;;22.52;13.82;;;;;;;;;;5001039;28;20040;-55
2023/05/17 12:33:34;;;;;;;26.45;12.98;;;;;;;;;;5012188;28;20045;-54
2023/05/17 12:36:02;;;;;;;21.90;12.57;;;;;;;;;;5004700;28;20021;-53
2023/05/17 12:38:31;;;;;;;23.17;13.93;;;;;;;;;;5007331;28;20037;-52
2023/05/17 12:40:56;;;;;;;;;;;;;;;;;;5016261;28;20124;-57
2023/05/17 12:43:23;;;;;;;23.63;13.27;;;;;;;;;;4996013;28;20403;-53
2023/05/17 12:45:49;;;;;;;20.90;12.75;;;;;;;;;;5014772;28;20033;-56
2023/05/17 12:48:16;;;;;;;24.75;13.02;;;;;;;;;;4996690;28;20478;-56
2023/05/17 12:50:47;;;;;;;22.50;13.55;;;;;;;;;;4997845;28;20030;-55
2023/05/17 12:53:14;;;;;;;22.30;13.25;;;;;;;;;;4995569;28;20030;-58
2023/05/17 12:55:40;;;;;;;19.33;12.73;;;;;;;;;;4992498;28;20030;-55
2023/05/17 12:58:06;;;;;;;21.63;13.63;;;;;;;;;;4987211;28;20056;-60
2023/05/17 13:00:32;;;;;;;23.38;12.88;;;;;;;;;;4975192;28;20062;-58
2023/05/17 13:02:58;;;;;;;21.77;13.52;;;;;;;;;;4975139;28;20664;-54
2023/05/17 13:05:24;;;;;;;20.40;13.02;;;;;;;;;;4974274;28;20034;-57
2023/05/17 13:07:50;;;;;;;25.20;13.48;;;;;;;;;;4961233;28;20057;-54
2023/05/17 13:10:26;;;;;;;21.15;13.30;;;;;;;;;;4994391;28;20246;-55
2023/05/17 13:12:59;;;;;;;22.40;14.50;;;;;;;;;;4984848;28;20108;-54
2023/05/17 13:15:31;;;;;;;23.75;15.25;;;;;;;;;;4984783;28;20117;-56
2023/05/17 13:17:58;;;;;;;21.85;13.50;;;;;;;;;;4976875;28;20109;-58
2023/05/17 13:20:26;;;;;;;22.35;13.65;;;;;;;;;;4992589;28;20034;-55
2023/05/17 13:22:53;;;;;;;21.40;14.00;;;;;;;;;;4988764;28;20026;-54
2023/05/17 13:25:19;;;;;;;26.08;14.68;;;;;;;;;;4992184;28;20065;-59
2023/05/17 13:27:47;;;;;;;21.13;13.27;;;;;;;;;;4976669;28;20025;-56
2023/05/17 13:30:14;;;;;;;18.83;13.52;;;;;;;;;;4991358;28;20558;-58
2023/05/17 13:32:40;;;;;;;20.42;13.00;;;;;;;;;;4994217;28;20034;-57
2023/05/17 13:35:06;;;;;;;21.13;13.20;;;;;;;;;;4975100;28;20018;-58
2023/05/17 13:37:32;;;;;;;21.60;12.85;;;;;;;;;;4997673;28;20086;-57
2023/05/17 13:39:58;;;;;;;22.13;13.50;;;;;;;;;;4994846;28;20050;-57
2023/05/17 13:42:24;;;;;;;22.58;14.63;;;;;;;;;;4995059;28;20030;-55
2023/05/17 13:44:50;;;;;;;18.35;12.35;;;;;;;;;;4976301;28;20049;-54
2023/05/17 13:47:16;;;;;;;21.33;12.77;;;;;;;;;;4976734;28;20019;-60
2023/05/17 13:49:42;;;;;;;21.67;13.48;;;;;;;;;;4993499;28;20036;-59
2023/05/17 13:52:08;;;;;;;21.98;14.15;;;;;;;;;;4992103;28;20026;-52
2023/05/17 13:54:35;;;;;;;21.48;13.50;;;;;;;;;;4992903;28;20101;-59
2023/05/17 13:57:01;;;;;;;22.58;14.38;;;;;;;;;;4989508;28;20390;-59
2023/05/17 13:59:27;;;;;;;20.13;13.75;;;;;;;;;;4993201;28;20113;-56
2023/05/17 14:01:53;;;;;;;20.85;13.82;;;;;;;;;;4992938;28;20045;-56
2023/05/17 14:04:20;;;;;;;20.58;14.10;;;;;;;;;;4991070;28;20069;-55
2023/05/17 14:06:47;;;;;;;19.38;12.98;;;;;;;;;;4976036;28;20051;-52
2023/05/17 14:09:13;;;;;;;24.27;13.48;;;;;;;;;;4991744;28;20018;-57
2023/05/17 14:11:39;;;;;;;19.55;13.52;;;;;;;;;;4974974;28;20034;-55
2023/05/17 14:14:05;;;;;;;18.95;13.40;;;;;;;;;;4975375;28;20437;-57
2023/05/17 14:16:31;;;;;;;19.33;13.45;;;;;;;;;;4965755;28;20034;-58
2023/05/17 14:18:57;;;;;;;18.85;13.20;;;;;;;;;;4983006;28;20026;-56
2023/05/17 14:21:23;;;;;;;18.70;13.02;;;;;;;;;;4992251;28;20095;-53